NFTL/HPA METAR and TAF weather

Enter ICAO airport designator
Station Type Date Time Source
NFTL METAR 2022/05/25 00:00 UTC NOAA

NFTL 250000Z 09010KT 9999 FEW016 29/24 Q1015


Station Type Date Time Source
NFTL Decoded METAR 2022/05/25 00:00 UTC NOAA

Haapai, Tonga (NFTL) 19-48S 174-21W 3M
May 24, 2022 - 08:00 PM EDT / 2022.05.25 0000 UTC
Wind: from the E (090 degrees) at 12 MPH (10 KT):0
Visibility: greater than 7 mile(s):0
Sky conditions: mostly clear
Temperature: 84 F (29 C)
Dew Point: 75 F (24 C)
Relative Humidity: 74%
Pressure (altimeter): 29.97 in. Hg (1015 hPa)
ob: NFTL 250000Z 09010KT 9999 FEW016 29/24 Q1015
cycle: 0

Station Type Date Time Source
NFTL TAF 2018/02/21 17:19 UTC NOAA

TAF NFTL 211605Z 2117/2208 12010KT 9999 SCT018

Example: see airport list